Accueil
METAR-TAF:

METAR-TAF

Aéroports :

Naltchik, Russie

latitude: 43-30-46N, longitude: 043-38-12E, altitude: 445 m

Observation

Le bulletin a été fait il y a 1 heure et 12 minutes, à 21:00 UTC
Vent calme
Température 1°C
Humidité 100%
Pression 1024 hPa
Visibilité: 0300 m
brouillard

METAR: URMN 172100Z 00000MPS 0300 R24/0350 FG VV001 01/01 Q1024 R24/////// NOSIG RMK QBB050 MT OBSC OBST OBSC QFE731

Heure: 01:12 (22:12 UTC)

Prévision

Le bulletin a été fait il y a 2 heures et 12 minutes, à 20:00 UTC
Prévision valable du 17 à 21 UTC au 18 à 06 UTC
Vent 6 kt de nord-est
Visibilité: 0300 m
Ciel couvert à une hauteur de 200 ft
bruine verglaçante, brouillard givrant
Temporairement
du 17 à 21 UTC au 18 à 06 UTC
Visibilité: 1200 m
Ciel couvert à une hauteur de 400 ft
brume

TAF: URMN 172000Z 1721/1806 04003MPS 0300 FZDZ FZFG OVC002 TEMPO 1721/1806 1200 BR OVC004

Observations et prévisions météorologiques de plus de 4000 aéroports (messages METAR et TAF).

Les stations disponibles sont représentées par des disques jaunes et rouges sur la carte.

Passer la souris dessus pour voir le nom de la station.

Cliquer dessus pour voir les observations et prévisions météorologiques.

Pour changer de carte: cliquez sur les boutons verts avec une croix noire pour zoomer, sur le bouton vert avec un tiret pour effectuer un zoom arrière, ou sur les flèches vertes pour les cartes adjacentes.


METAR-TAF: